Latest Coastal Weather Observations for Lihou Reef Lighthouse

IDQ60701

Issued at 6:12 am EST Thursday 8 December 2016 (issued every 10 minutes, with the page automatically refreshed every 10 minutes)

About coastal observations | Map of coastal stations | Coastal observations for QLD | Marine services | Other Formats
Station Details ID: 200880 Name: LIHOU REEF LIGHTHOUSE Lat: -17.13 Lon: 152.15 Height: 0.0 m
Data from the previous 72 hours. | See also: Recent months at Lihou Reef Lighthouse
Date/Time
EST
Temp
°C
Wind Pressure Rain since
9am
mm
Weather Cloud Vis
km
Sea
Height
m
Swell
Dir  Spd
kts
Gust
kts
hPa Trend Height
m
Period
s
Dir
08/06:00am 27.1 E 12 14 1010.6 - - - - - - - - -
08/05:30am 27.1 E 11 14 1010.2 - - - - - - - - -
08/05:00am 25.8 NE 6 7 1010.0 - - - - - - - - -
08/04:30am 26.2 E 5 6 1009.8 - - - - - - - - -
08/04:00am 26.1 E 6 8 1009.7 - - - - - - - - -
08/03:30am 26.3 ESE 9 10 1009.7 - - - - - - - - -
08/03:00am 25.5 E 12 15 1009.6 - - - - - - - - -
08/02:30am 26.7 ESE 9 11 1009.6 - - - - - - - - -
08/02:00am 26.7 ESE 10 12 1009.7 - - - - - - - - -
08/01:30am 26.8 ESE 10 12 1010.0 - - - - - - - - -
08/01:00am 26.9 SE 10 11 1010.4 - - - - - - - - -
08/12:30am 26.8 SE 9 11 1010.7 - - - - - - - - -
08/12:00am 26.8 ESE 11 13 1011.0 - - - - - - - - -
 
Date/Time
EST
Temp
°C
Wind Pressure Rain since
9am
mm
Weather Cloud Vis
km
Sea
Height
m
Swell
Dir  Spd
kts
Gust
kts
hPa Trend Height
m
Period
s
Dir
07/11:30pm 26.8 SE 12 14 1011.4 - - - - - - - - -
07/11:00pm 26.8 ESE 12 14 1011.7 - - - - - - - - -
07/10:30pm 26.8 ESE 11 13 1012.1 - - - - - - - - -
07/10:00pm 26.9 SE 12 14 1011.8 - - - - - - - - -
07/09:30pm 27.0 SE 12 13 1012.0 - - - - - - - - -
07/09:00pm 26.9 SE 10 12 1011.9 - - - - - - - - -
07/08:30pm 26.8 SSE 11 12 1012.0 - - - - - - - - -
07/08:00pm 26.9 SSE 12 14 1011.9 - - - - - - - - -
07/07:30pm 27.0 SSE 13 15 1012.0 - - - - - - - - -
07/07:00pm 27.1 SSE 14 16 1012.0 - - - - - - - - -
07/06:30pm 27.1 SE 13 14 1011.9 - - - - - - - - -
07/06:00pm 27.3 SE 13 15 1011.5 - - - - - - - - -
07/05:30pm 27.4 SE 12 15 1011.1 - - - - - - - - -
07/05:00pm 27.4 SE 12 14 1010.6 - - - - - - - - -
07/04:30pm 27.5 SE 13 15 1010.4 - - - - - - - - -
07/04:00pm 27.5 SE 12 14 1010.3 - - - - - - - - -
07/03:30pm 27.6 SE 12 14 1010.2 - - - - - - - - -
07/03:00pm 27.6 SE 11 12 1010.3 - - - - - - - - -
07/02:30pm 27.5 SE 10 11 1010.4 - - - - - - - - -
07/02:00pm 28.0 ESE 9 11 1010.8 - - - - - - - - -
07/01:30pm 27.7 ESE 10 11 1011.0 - - - - - - - - -
07/01:00pm 27.6 ESE 10 11 1011.2 - - - - - - - - -
07/12:30pm 27.5 ESE 11 12 1011.4 - - - - - - - - -
07/12:00pm 27.4 ESE 10 12 1011.6 - - - - - - - - -
07/11:30am 27.5 ESE 10 12 1011.8 - - - - - - - - -
07/11:00am 27.4 E 11 13 1011.9 - - - - - - - - -
07/10:30am 27.5 E 12 14 1012.1 - - - - - - - - -
07/10:00am 27.5 ESE 12 14 1012.1 - - - - - - - - -
07/09:30am 27.4 CALM 0 7 1011.9 - - - - - - - - -
07/09:00am 27.4 E 12 14 1011.9 - - - - - - - - -
07/08:30am 27.3 E 13 15 1011.8 - - - - - - - - -
07/08:00am 27.5 E 12 14 1011.9 - - - - - - - - -
07/07:30am 27.4 ESE 13 15 1011.6 - - - - - - - - -
07/07:00am 27.1 ESE 13 16 1011.4 - - - - - - - - -
07/06:30am 27.2 ESE 13 16 1011.1 - - - - - - - - -
07/06:00am 27.1 E 15 18 1010.7 - - - - - - - - -
07/05:30am 26.5 E 11 16 1010.3 - - - - - - - - -
07/05:00am 26.0 ENE 11 16 1010.2 - - - - - - - - -
07/04:30am 24.9 E 16 20 1009.9 - - - - - - - - -
07/04:00am 25.8 E 15 21 1009.6 - - - - - - - - -
07/03:30am 26.9 E 12 13 1009.5 - - - - - - - - -
07/03:00am 26.9 ENE 11 13 1009.4 - - - - - - - - -
07/02:30am 27.0 E 11 13 1009.5 - - - - - - - - -
07/02:00am 26.7 ENE 11 13 1009.5 - - - - - - - - -
07/01:30am 26.5 E 12 13 1009.6 - - - - - - - - -
07/01:00am 26.5 E 12 13 1009.9 - - - - - - - - -
07/12:30am 26.1 ESE 13 14 1010.2 - - - - - - - - -
07/12:00am 26.0 E 11 13 1010.6 - - - - - - - - -
 
Date/Time
EST
Temp
°C
Wind Pressure Rain since
9am
mm
Weather Cloud Vis
km
Sea
Height
m
Swell
Dir  Spd
kts
Gust
kts
hPa Trend Height
m
Period
s
Dir
06/11:30pm 25.6 ESE 15 18 1010.6 - - - - - - - - -
06/11:00pm 26.0 ESE 16 18 1011.0 - - - - - - - - -
06/10:30pm 26.1 SE 16 18 1011.2 - - - - - - - - -
06/10:00pm 26.3 SE 16 18 1011.2 - - - - - - - - -
06/09:30pm 26.1 SE 17 19 1011.2 - - - - - - - - -
06/09:00pm 26.4 SE 16 19 1011.0 - - - - - - - - -
06/08:30pm 26.7 SE 15 17 1011.0 - - - - - - - - -
06/08:00pm 26.5 SE 17 20 1011.0 - - - - - - - - -
06/07:30pm 26.7 SSE 16 19 1010.8 - - - - - - - - -
06/07:00pm 26.9 SE 16 19 1011.0 - - - - - - - - -
06/06:30pm 26.8 SE 16 18 1010.9 - - - - - - - - -
06/06:00pm 26.9 SE 17 19 1010.8 - - - - - - - - -
06/05:30pm 27.1 SE 17 19 1010.7 - - - - - - - - -
06/05:00pm 27.2 SE 17 22 1010.7 - - - - - - - - -
06/04:30pm 27.2 SE 18 20 1010.3 - - - - - - - - -
06/04:00pm 27.3 SE 17 20 1010.1 - - - - - - - - -
06/03:30pm 27.4 SE 17 20 1010.0 - - - - - - - - -
06/03:00pm 27.3 SE 14 17 1010.1 - - - - - - - - -
06/02:30pm 27.4 SE 15 18 1010.5 - - - - - - - - -
06/02:00pm 27.1 SE 15 18 1010.7 - - - - - - - - -
06/01:30pm 27.3 SE 15 18 1011.0 - - - - - - - - -
06/01:00pm 27.2 SE 14 16 1011.3 - - - - - - - - -
06/12:30pm 27.2 SE 15 17 1011.6 - - - - - - - - -
06/12:00pm 27.1 SE 14 16 1011.8 - - - - - - - - -
06/11:30am 27.1 SE 14 17 1012.4 - - - - - - - - -
06/11:00am 27.0 SE 15 17 1012.6 - - - - - - - - -
06/10:30am 27.1 SE 15 17 1012.9 - - - - - - - - -
06/10:00am 27.1 SE 14 16 1013.0 - - - - - - - - -
06/09:30am 27.1 SE 13 16 1013.1 - - - - - - - - -
06/09:00am 27.3 SE 13 16 1013.2 - - - - - - - - -
06/08:30am 27.1 SE 13 15 1013.1 - - - - - - - - -
06/08:00am 27.1 SE 14 16 1012.9 - - - - - - - - -
06/07:30am 27.2 SE 12 15 1012.8 - - - - - - - - -
06/07:00am 26.8 SE 11 14 1012.7 - - - - - - - - -
06/06:30am 26.6 SE 14 16 1012.5 - - - - - - - - -
06/06:00am 26.5 SE 14 17 1012.1 - - - - - - - - -
06/05:30am 26.5 ESE 15 17 1011.8 - - - - - - - - -
06/05:00am 26.2 SE 14 17 1011.3 - - - - - - - - -
06/04:30am 26.2 SE 15 18 1011.1 - - - - - - - - -
06/04:00am 26.1 SE 16 19 1010.6 - - - - - - - - -
06/03:30am 26.1 SE 16 19 1010.6 - - - - - - - - -
06/03:00am 26.0 SE 17 21 1010.4 - - - - - - - - -
06/02:30am 26.1 SE 16 19 1010.6 - - - - - - - - -
06/02:00am 26.4 SE 19 23 1010.8 - - - - - - - - -
06/01:30am 26.2 SE 18 21 1010.9 - - - - - - - - -
06/01:00am 26.3 SE 15 19 1011.4 - - - - - - - - -
06/12:30am 26.3 SE 16 19 1011.6 - - - - - - - - -
06/12:00am 26.3 SE 17 20 1012.1 - - - - - - - - -
 
Date/Time
EST
Temp
°C
Wind Pressure Rain since
9am
mm
Weather Cloud Vis
km
Sea
Height
m
Swell
Dir  Spd
kts
Gust
kts
hPa Trend Height
m
Period
s
Dir
05/11:30pm 26.3 SE 18 21 1012.4 - - - - - - - - -
05/11:00pm 26.5 SE 18 21 1012.7 - - - - - - - - -
05/10:30pm 26.7 SE 17 21 1012.8 - - - - - - - - -
05/10:00pm 26.5 SE 17 20 1012.9 - - - - - - - - -
05/09:30pm 26.6 SE 17 21 1012.9 - - - - - - - - -
05/09:00pm 26.5 SE 16 19 1012.8 - - - - - - - - -
05/08:30pm 26.7 SE 17 20 1012.6 - - - - - - - - -
05/08:00pm 26.7 SE 17 20 1012.5 - - - - - - - - -
05/07:30pm 26.9 SE 15 18 1012.4 - - - - - - - - -
05/07:00pm 26.7 SE 16 18 1012.1 - - - - - - - - -
05/06:30pm 26.7 SE 15 17 1011.9 - - - - - - - - -
05/06:00pm 27.1 SE 15 17 1011.8 - - - - - - - - -
05/05:30pm 27.1 SE 14 17 1011.6 - - - - - - - - -
05/05:00pm 27.4 SE 15 18 1011.2 - - - - - - - - -
05/04:30pm 27.3 SE 14 17 1011.1 - - - - - - - - -
05/04:00pm 27.2 SE 15 18 1010.9 - - - - - - - - -
05/03:30pm 27.3 SE 15 18 1010.9 - - - - - - - - -
05/03:00pm 27.1 SE 14 17 1010.8 - - - - - - - - -
05/02:30pm 27.0 SE 15 17 1011.0 - - - - - - - - -
05/02:00pm 27.1 SE 14 17 1011.1 - - - - - - - - -
05/01:30pm 27.1 SE 13 16 1011.4 - - - - - - - - -
05/01:00pm 27.1 SE 13 15 1011.8 - - - - - - - - -
05/12:30pm 27.2 SE 13 15 1012.1 - - - - - - - - -
05/12:00pm 26.9 SE 14 16 1012.3 - - - - - - - - -
05/11:30am 27.0 SE 14 16 1012.6 - - - - - - - - -
05/11:00am 27.0 SE 14 16 1012.8 - - - - - - - - -
05/10:30am 27.0 SE 14 17 1013.3 - - - - - - - - -
05/10:00am 27.1 SE 15 17 1013.4 - - - - - - - - -
05/09:30am 27.0 SE 14 17 1013.4 - - - - - - - - -
05/09:00am 27.1 ESE 15 17 1013.4 - - - - - - - - -
05/08:30am 26.9 SE 16 19 1013.4 - - - - - - - - -
05/08:00am 26.9 SE 16 19 1013.4 - - - - - - - - -
05/07:30am 26.8 SE 17 20 1013.3 - - - - - - - - -
05/07:00am 26.8 SE 16 19 1013.2 - - - - - - - - -
05/06:30am 26.6 SE 16 20 1013.0 - - - - - - - - -

Other Formats:

Comma delimited format used in spreadsheet applications
http://www.bom.gov.au/fwo/IDQ60701/IDQ60701.94293.axf

JavaScript Object Notation format (JSON) in row-major order
http://www.bom.gov.au/fwo/IDQ60701/IDQ60701.94293.json